createdAt,value
2023-01-13T00:06:22.895Z,77.49
2023-01-13T00:10:12.083Z,77.42
2023-01-13T00:13:54.223Z,77.49
2023-01-13T00:17:23.775Z,77.53
2023-01-13T00:21:13.003Z,77.30
2023-01-13T00:25:03.014Z,77.31
2023-01-13T01:01:39.695Z,76.99
2023-01-13T01:05:27.685Z,76.92
2023-01-13T01:09:15.293Z,76.85
2023-01-13T01:12:56.497Z,76.87
2023-01-13T01:16:45.128Z,76.82
2023-01-13T01:20:32.750Z,76.70
2023-01-13T01:24:21.365Z,76.70
2023-01-13T01:28:09.331Z,76.56
2023-01-13T01:31:57.573Z,76.44
2023-01-13T01:35:29.188Z,76.42
2023-01-13T01:38:58.039Z,76.29
2023-01-13T01:42:44.241Z,76.12
2023-01-13T01:50:27.140Z,75.90
2023-01-13T02:01:50.330Z,75.55
2023-01-13T02:05:39.896Z,75.43
2023-01-13T02:09:28.387Z,75.34
2023-01-13T02:13:16.252Z,75.34
2023-01-13T02:17:03.976Z,75.30
2023-01-13T02:21:03.973Z,75.33
2023-01-13T02:25:21.660Z,75.34
2023-01-13T02:29:11.716Z,75.36
2023-01-13T02:33:02.857Z,75.36
2023-01-13T02:44:54.739Z,75.84
2023-01-13T02:48:43.428Z,75.88
2023-01-13T02:52:32.832Z,75.86
2023-01-13T03:00:06.542Z,76.03
2023-01-13T03:03:55.587Z,76.15
2023-01-13T03:07:47.254Z,76.19
2023-01-13T03:11:35.032Z,76.25
2023-01-13T03:23:29.094Z,76.16
2023-01-13T03:27:30.201Z,76.18
2023-01-13T03:35:21.656Z,76.06
2023-01-13T03:38:56.092Z,76.26
2023-01-13T03:42:56.309Z,76.30
2023-01-13T03:55:06.600Z,76.31
2023-01-13T03:58:54.960Z,76.22
2023-01-13T04:17:39.588Z,75.68
2023-01-13T04:21:28.601Z,75.67
2023-01-13T04:25:17.871Z,75.81
2023-01-13T04:29:06.854Z,75.75
2023-01-13T04:32:46.026Z,75.66
2023-01-13T04:36:35.310Z,75.51
2023-01-13T04:40:24.513Z,75.31
2023-01-13T04:44:13.439Z,75.15
2023-01-13T04:47:55.477Z,74.88
2023-01-13T04:51:44.587Z,74.74
2023-01-13T04:55:45.693Z,74.71
2023-01-13T05:02:28.498Z,74.57
2023-01-13T05:04:56.647Z,74.46
2023-01-13T05:07:36.499Z,74.45
2023-01-13T05:10:04.997Z,74.45
2023-01-13T05:12:51.847Z,74.41
2023-01-13T05:15:38.683Z,74.36
2023-01-13T05:19:17.527Z,74.33
2023-01-13T05:23:08.360Z,74.33
2023-01-13T05:26:59.924Z,74.24
2023-01-13T05:30:47.834Z,74.20
2023-01-13T05:34:37.624Z,74.06
2023-01-13T05:38:26.634Z,74.01
2023-01-13T05:42:43.661Z,73.88
2023-01-13T05:46:22.510Z,73.93
2023-01-13T05:50:11.884Z,73.89
2023-01-13T05:54:03.483Z,73.87
2023-01-13T05:57:45.333Z,73.87
2023-01-13T06:00:35.029Z,73.78
2023-01-13T06:04:03.810Z,73.82
2023-01-13T06:07:35.644Z,73.77
2023-01-13T06:11:25.836Z,73.62
2023-01-13T06:15:15.993Z,73.60
2023-01-13T06:22:49.877Z,73.43
2023-01-13T06:26:45.114Z,73.41
2023-01-13T06:30:02.353Z,73.42
2023-01-13T06:33:29.284Z,73.29
2023-01-13T06:37:18.324Z,73.20
2023-01-13T06:41:07.441Z,73.17
2023-01-13T06:44:57.763Z,73.11
2023-01-13T06:48:46.434Z,72.84
2023-01-13T06:52:35.190Z,72.86
2023-01-13T06:56:23.060Z,72.86
2023-01-13T07:27:12.766Z,72.81
2023-01-13T07:31:00.456Z,72.79
2023-01-13T07:34:48.032Z,72.75
2023-01-13T07:38:35.682Z,72.78
2023-01-13T07:42:21.933Z,72.69
2023-01-13T07:46:10.186Z,72.70
2023-01-13T07:50:00.894Z,72.51
2023-01-13T07:53:50.396Z,72.32
2023-01-13T07:57:40.041Z,72.33
2023-01-13T08:05:26.560Z,71.95
2023-01-13T08:09:15.492Z,71.76
2023-01-13T08:13:02.719Z,71.50
2023-01-13T08:16:51.739Z,71.31
2023-01-13T08:20:40.826Z,70.69
2023-01-13T08:24:30.051Z,70.51
2023-01-13T08:28:19.241Z,70.35
2023-01-13T08:43:57.749Z,69.91
2023-01-13T08:47:36.604Z,69.63
2023-01-13T08:51:25.598Z,69.69
2023-01-13T08:55:14.575Z,69.56
2023-01-13T08:59:03.898Z,69.76
2023-01-13T09:02:55.902Z,69.75
2023-01-13T09:06:45.129Z,69.27
2023-01-13T09:10:35.145Z,68.94
2023-01-13T09:14:24.318Z,68.67
2023-01-13T09:18:14.388Z,68.30
2023-01-13T09:21:43.961Z,68.22
2023-01-13T09:25:33.938Z,67.84
2023-01-13T09:33:08.475Z,67.13
2023-01-13T09:36:39.568Z,66.89
2023-01-13T09:39:27.935Z,66.60
2023-01-13T09:43:01.123Z,66.66
2023-01-13T09:47:09.939Z,66.27
2023-01-13T09:49:42.259Z,66.13
2023-01-13T10:05:04.474Z,65.58
2023-01-13T10:08:37.514Z,65.19
2023-01-13T10:11:49.301Z,64.61
2023-01-13T10:15:09.530Z,64.77
2023-01-13T10:18:53.574Z,64.80
2023-01-13T10:21:37.890Z,63.89
2023-01-13T10:42:48.923Z,58.69
2023-01-13T10:45:59.604Z,57.79
2023-01-13T10:49:21.870Z,57.39
2023-01-13T10:53:41.559Z,57.78
2023-01-13T11:04:49.097Z,59.26
2023-01-13T11:16:52.755Z,61.30
2023-01-13T11:20:31.352Z,61.82
2023-01-13T11:24:23.419Z,62.22
2023-01-13T11:28:16.874Z,63.06
2023-01-13T11:31:13.888Z,63.53
2023-01-13T11:34:20.161Z,63.52
2023-01-13T11:38:14.357Z,63.68
2023-01-13T11:42:00.285Z,64.34
2023-01-13T11:45:20.476Z,64.48
2023-01-13T11:48:51.559Z,64.66
2023-01-13T12:12:53.281Z,66.57
2023-01-13T12:16:47.933Z,66.69
2023-01-13T12:20:37.114Z,66.92
2023-01-13T12:24:40.377Z,67.00
2023-01-13T12:36:52.115Z,67.16
2023-01-13T12:40:39.858Z,67.36
2023-01-13T12:44:38.122Z,67.60
2023-01-13T12:56:52.484Z,68.44
2023-01-13T13:00:41.568Z,68.52
2023-01-13T13:04:49.452Z,68.81
2023-01-13T13:08:46.887Z,68.81
2023-01-13T13:20:51.600Z,69.10
2023-01-13T13:24:20.710Z,69.15
2023-01-13T13:28:07.199Z,68.92
2023-01-13T13:31:57.908Z,68.76
2023-01-13T13:52:02.022Z,68.76
2023-01-13T13:55:57.193Z,68.78
2023-01-13T13:59:48.347Z,68.75
2023-01-13T14:15:31.322Z,68.99
2023-01-13T14:19:20.403Z,68.94
2023-01-13T14:23:09.374Z,68.80
2023-01-13T14:26:57.839Z,68.90
2023-01-13T14:30:47.156Z,68.68
2023-01-13T14:34:36.169Z,68.62
2023-01-13T14:38:21.454Z,68.60
2023-01-13T14:46:08.609Z,68.76
2023-01-13T14:50:06.801Z,68.82
2023-01-13T14:54:04.985Z,68.76
2023-01-13T15:06:19.833Z,68.50
2023-01-13T15:10:07.698Z,68.40
2023-01-13T15:14:01.201Z,68.16
2023-01-13T15:17:48.897Z,68.07
2023-01-13T15:29:41.564Z,68.02
2023-01-13T15:33:30.699Z,68.11
2023-01-13T15:37:19.718Z,69.01
2023-01-13T15:41:15.089Z,70.15
2023-01-13T15:45:03.263Z,70.22
2023-01-13T15:48:43.147Z,70.95
2023-01-13T16:07:41.488Z,71.84
2023-01-13T16:11:31.121Z,72.16
2023-01-13T16:15:12.881Z,71.97
2023-01-13T16:19:01.872Z,72.04
2023-01-13T16:22:51.188Z,72.20
2023-01-13T16:26:30.288Z,72.49
2023-01-13T16:29:26.740Z,72.50
2023-01-13T16:33:15.764Z,72.69
2023-01-13T16:37:05.187Z,72.80
2023-01-13T16:40:53.977Z,72.66
2023-01-13T16:44:33.162Z,72.83
2023-01-13T17:07:56.051Z,72.81
2023-01-13T17:11:37.852Z,72.81
2023-01-13T17:14:47.484Z,72.69
2023-01-13T17:18:35.102Z,72.65
2023-01-13T17:22:22.587Z,72.57
2023-01-13T17:26:10.401Z,72.62
2023-01-13T17:30:01.517Z,72.56
2023-01-13T17:33:49.473Z,72.59
2023-01-13T17:37:40.771Z,72.78
2023-01-13T17:41:29.612Z,72.79
2023-01-13T17:57:26.780Z,73.25
2023-01-13T18:01:14.794Z,73.40
2023-01-13T18:04:55.592Z,73.37
2023-01-13T18:08:18.976Z,73.31
2023-01-13T18:11:55.296Z,73.25
2023-01-13T18:15:43.286Z,73.24
2023-01-13T18:19:28.587Z,73.17
2023-01-13T18:23:08.753Z,73.34
2023-01-13T18:26:26.827Z,73.41
2023-01-13T18:28:56.951Z,73.64
2023-01-13T18:40:20.122Z,75.87
2023-01-13T18:43:52.734Z,77.20
2023-01-13T18:47:19.742Z,77.45
2023-01-13T18:51:09.145Z,77.57
2023-01-13T18:54:52.579Z,78.67
2023-01-13T18:58:41.650Z,79.18
2023-01-13T19:02:13.673Z,79.36
2023-01-13T19:06:05.097Z,79.18
2023-01-13T19:09:54.122Z,79.51
2023-01-13T19:13:41.242Z,79.76
2023-01-13T19:17:20.105Z,79.68
2023-01-13T19:21:11.650Z,80.53
2023-01-13T19:25:02.484Z,80.93
2023-01-13T19:57:59.443Z,84.33
2023-01-13T20:01:38.731Z,84.18
2023-01-13T20:05:11.611Z,84.44
2023-01-13T20:08:52.660Z,85.19
2023-01-13T20:12:34.222Z,85.55
2023-01-13T20:15:23.993Z,85.01
2023-01-13T20:18:33.039Z,85.36
2023-01-13T20:22:20.881Z,85.79
2023-01-13T20:37:53.364Z,86.47
2023-01-13T20:41:40.913Z,86.72
2023-01-13T20:44:18.284Z,86.70
2023-01-13T20:47:34.451Z,86.73
2023-01-13T20:51:13.882Z,86.53
2023-01-13T20:55:02.721Z,86.63
2023-01-13T20:59:39.861Z,86.68
2023-01-13T21:02:59.247Z,86.66
2023-01-13T21:05:29.078Z,86.48
2023-01-13T21:07:58.732Z,85.99
2023-01-13T21:11:10.772Z,86.03
2023-01-13T21:14:50.065Z,86.04
2023-01-13T21:18:36.083Z,85.83
2023-01-13T21:22:03.820Z,85.36
2023-01-13T21:25:21.348Z,85.25
2023-01-13T21:29:19.923Z,85.41
2023-01-13T21:33:09.002Z,85.46
2023-01-13T21:36:44.666Z,85.23
2023-01-13T21:39:33.214Z,85.14
2023-01-13T21:43:03.220Z,85.16
2023-01-13T21:46:51.121Z,84.68
2023-01-13T21:49:59.873Z,84.61
2023-01-13T21:53:48.896Z,84.49
2023-01-13T21:57:23.054Z,84.24
2023-01-13T22:01:12.585Z,83.94
2023-01-13T22:04:31.365Z,83.59
2023-01-13T22:08:02.985Z,83.41
2023-01-13T22:15:39.934Z,82.69
2023-01-13T22:19:10.271Z,82.43
2023-01-13T22:22:20.947Z,81.90
2023-01-13T22:25:48.879Z,81.78
2023-01-13T22:29:29.686Z,81.36
2023-01-13T22:32:57.974Z,81.33
2023-01-13T22:35:54.330Z,81.17
2023-01-13T22:39:20.950Z,81.14
2023-01-13T22:42:28.141Z,80.80
2023-01-13T22:44:55.143Z,80.50
2023-01-13T22:48:15.252Z,80.26
2023-01-13T22:52:07.104Z,80.07
2023-01-13T22:55:02.621Z,80.04
2023-01-13T22:58:30.167Z,79.81
2023-01-13T23:01:17.183Z,79.74
2023-01-13T23:15:55.677Z,82.13
2023-01-13T23:19:44.656Z,83.60
2023-01-13T23:22:52.571Z,83.97
2023-01-13T23:25:36.354Z,84.63
2023-01-13T23:28:48.609Z,85.53
2023-01-13T23:32:11.020Z,85.99
2023-01-13T23:35:27.118Z,86.06
2023-01-13T23:38:59.221Z,86.12
2023-01-13T23:42:48.067Z,86.34
2023-01-13T23:45:46.458Z,86.22
2023-01-13T23:49:15.296Z,86.44
2023-01-13T23:51:52.707Z,86.40
2023-01-13T23:54:44.175Z,86.37
2023-01-13T23:58:12.004Z,86.06
